sensor_id;sensor_type;location;lat;lon;timestamp;temperature;humidity
56300;DHT22;42209;6.376;-10.782;2023-04-24T00:01:49;22.20;41.90
56300;DHT22;42209;6.376;-10.782;2023-04-24T00:04:17;22.10;41.70
56300;DHT22;42209;6.376;-10.782;2023-04-24T00:06:46;22.10;41.60
56300;DHT22;42209;6.376;-10.782;2023-04-24T00:09:14;22.10;41.30
56300;DHT22;42209;6.376;-10.782;2023-04-24T00:11:42;22.10;41.30
56300;DHT22;42209;6.376;-10.782;2023-04-24T00:14:10;22.10;41.40
56300;DHT22;42209;6.376;-10.782;2023-04-24T00:16:39;22.10;41.60
56300;DHT22;42209;6.376;-10.782;2023-04-24T00:19:07;22.20;49.10
56300;DHT22;42209;6.376;-10.782;2023-04-24T00:21:35;22.50;52.00
56300;DHT22;42209;6.376;-10.782;2023-04-24T00:24:04;22.70;54.20
56300;DHT22;42209;6.376;-10.782;2023-04-24T00:26:32;22.80;56.20
56300;DHT22;42209;6.376;-10.782;2023-04-24T00:29:00;22.80;51.20
56300;DHT22;42209;6.376;-10.782;2023-04-24T00:31:29;22.70;48.80
56300;DHT22;42209;6.376;-10.782;2023-04-24T00:33:58;22.50;47.70
56300;DHT22;42209;6.376;-10.782;2023-04-24T00:36:26;22.40;46.70
56300;DHT22;42209;6.376;-10.782;2023-04-24T00:38:55;22.30;45.60
56300;DHT22;42209;6.376;-10.782;2023-04-24T00:41:24;22.30;45.30
56300;DHT22;42209;6.376;-10.782;2023-04-24T00:43:53;22.20;44.60
56300;DHT22;42209;6.376;-10.782;2023-04-24T00:46:22;22.20;44.30
56300;DHT22;42209;6.376;-10.782;2023-04-24T00:48:50;22.20;43.90
56300;DHT22;42209;6.376;-10.782;2023-04-24T00:51:18;22.20;43.40
56300;DHT22;42209;6.376;-10.782;2023-04-24T00:53:46;22.20;43.00
56300;DHT22;42209;6.376;-10.782;2023-04-24T00:56:15;22.20;42.80
56300;DHT22;42209;6.376;-10.782;2023-04-24T00:58:43;22.10;42.70
56300;DHT22;42209;6.376;-10.782;2023-04-24T01:01:12;22.10;42.30
56300;DHT22;42209;6.376;-10.782;2023-04-24T01:03:41;22.10;42.30
56300;DHT22;42209;6.376;-10.782;2023-04-24T01:06:09;22.10;42.00
56300;DHT22;42209;6.376;-10.782;2023-04-24T01:08:39;22.10;41.70
56300;DHT22;42209;6.376;-10.782;2023-04-24T01:11:07;22.00;41.70
56300;DHT22;42209;6.376;-10.782;2023-04-24T01:13:36;22.00;41.60
56300;DHT22;42209;6.376;-10.782;2023-04-24T01:16:04;22.00;41.30
56300;DHT22;42209;6.376;-10.782;2023-04-24T01:18:34;22.00;41.40
56300;DHT22;42209;6.376;-10.782;2023-04-24T01:21:04;22.00;41.00
56300;DHT22;42209;6.376;-10.782;2023-04-24T01:23:32;22.00;41.00
56300;DHT22;42209;6.376;-10.782;2023-04-24T01:26:00;22.00;41.20
56300;DHT22;42209;6.376;-10.782;2023-04-24T01:28:29;21.90;41.00
56300;DHT22;42209;6.376;-10.782;2023-04-24T01:30:57;21.90;40.90
56300;DHT22;42209;6.376;-10.782;2023-04-24T01:33:26;21.90;40.80
56300;DHT22;42209;6.376;-10.782;2023-04-24T01:35:54;21.90;40.90
56300;DHT22;42209;6.376;-10.782;2023-04-24T01:38:22;21.90;40.90
56300;DHT22;42209;6.376;-10.782;2023-04-24T01:40:51;21.90;40.80
56300;DHT22;42209;6.376;-10.782;2023-04-24T01:43:20;21.80;40.70
56300;DHT22;42209;6.376;-10.782;2023-04-24T01:45:49;22.00;47.00
56300;DHT22;42209;6.376;-10.782;2023-04-24T01:48:17;22.20;50.80
56300;DHT22;42209;6.376;-10.782;2023-04-24T01:50:46;22.40;52.90
56300;DHT22;42209;6.376;-10.782;2023-04-24T01:53:14;22.60;55.30
56300;DHT22;42209;6.376;-10.782;2023-04-24T01:55:42;22.80;57.10
56300;DHT22;42209;6.376;-10.782;2023-04-24T01:58:12;22.90;57.80
56300;DHT22;42209;6.376;-10.782;2023-04-24T02:00:41;22.80;51.80
56300;DHT22;42209;6.376;-10.782;2023-04-24T02:03:09;22.60;49.50
56300;DHT22;42209;6.376;-10.782;2023-04-24T02:05:38;22.40;48.00
56300;DHT22;42209;6.376;-10.782;2023-04-24T02:08:06;22.30;48.00
56300;DHT22;42209;6.376;-10.782;2023-04-24T02:10:37;22.40;54.90
56300;DHT22;42209;6.376;-10.782;2023-04-24T02:13:05;22.60;57.70
56300;DHT22;42209;6.376;-10.782;2023-04-24T02:15:33;22.80;59.90
56300;DHT22;42209;6.376;-10.782;2023-04-24T02:18:03;23.00;61.00
56300;DHT22;42209;6.376;-10.782;2023-04-24T02:20:31;22.90;54.80
56300;DHT22;42209;6.376;-10.782;2023-04-24T02:23:00;22.70;51.90
56300;DHT22;42209;6.376;-10.782;2023-04-24T02:25:28;22.60;50.30
56300;DHT22;42209;6.376;-10.782;2023-04-24T02:27:56;22.50;49.30
56300;DHT22;42209;6.376;-10.782;2023-04-24T02:30:26;22.40;48.50
56300;DHT22;42209;6.376;-10.782;2023-04-24T02:32:54;22.30;47.50
56300;DHT22;42209;6.376;-10.782;2023-04-24T02:35:22;22.30;46.70
56300;DHT22;42209;6.376;-10.782;2023-04-24T02:37:51;22.30;46.30
56300;DHT22;42209;6.376;-10.782;2023-04-24T02:40:19;22.20;45.50
56300;DHT22;42209;6.376;-10.782;2023-04-24T02:42:47;22.20;45.10
56300;DHT22;42209;6.376;-10.782;2023-04-24T02:45:17;22.20;44.50
56300;DHT22;42209;6.376;-10.782;2023-04-24T02:47:45;22.20;44.30
56300;DHT22;42209;6.376;-10.782;2023-04-24T02:50:13;22.10;43.70
56300;DHT22;42209;6.376;-10.782;2023-04-24T02:52:41;22.10;43.20
56300;DHT22;42209;6.376;-10.782;2023-04-24T02:55:10;22.10;43.50
56300;DHT22;42209;6.376;-10.782;2023-04-24T02:57:38;22.10;43.00
56300;DHT22;42209;6.376;-10.782;2023-04-24T03:00:07;22.00;42.40
56300;DHT22;42209;6.376;-10.782;2023-04-24T03:02:35;22.00;42.50
56300;DHT22;42209;6.376;-10.782;2023-04-24T03:05:04;22.00;42.40
56300;DHT22;42209;6.376;-10.782;2023-04-24T03:07:33;22.00;42.00
56300;DHT22;42209;6.376;-10.782;2023-04-24T03:10:01;22.00;42.00
56300;DHT22;42209;6.376;-10.782;2023-04-24T03:12:29;22.00;44.60
56300;DHT22;42209;6.376;-10.782;2023-04-24T03:14:57;22.10;50.90
56300;DHT22;42209;6.376;-10.782;2023-04-24T03:17:25;22.40;53.80
56300;DHT22;42209;6.376;-10.782;2023-04-24T03:19:54;22.60;55.60
56300;DHT22;42209;6.376;-10.782;2023-04-24T03:22:22;22.70;57.50
56300;DHT22;42209;6.376;-10.782;2023-04-24T03:24:51;22.80;56.60
56300;DHT22;42209;6.376;-10.782;2023-04-24T03:27:19;22.70;51.70
56300;DHT22;42209;6.376;-10.782;2023-04-24T03:30:01;22.50;49.50
56300;DHT22;42209;6.376;-10.782;2023-04-24T03:32:41;22.40;48.30
56300;DHT22;42209;6.376;-10.782;2023-04-24T03:35:12;22.20;47.50
56300;DHT22;42209;6.376;-10.782;2023-04-24T03:37:41;22.40;54.70
56300;DHT22;42209;6.376;-10.782;2023-04-24T03:40:29;22.50;57.50
56300;DHT22;42209;6.376;-10.782;2023-04-24T03:42:58;22.80;58.40
56300;DHT22;42209;6.376;-10.782;2023-04-24T03:45:27;22.90;61.20
56300;DHT22;42209;6.376;-10.782;2023-04-24T03:47:56;23.00;56.30
56300;DHT22;42209;6.376;-10.782;2023-04-24T03:50:24;22.80;52.90
56300;DHT22;42209;6.376;-10.782;2023-04-24T03:52:53;22.60;51.10
56300;DHT22;42209;6.376;-10.782;2023-04-24T03:55:33;22.40;49.90
56300;DHT22;42209;6.376;-10.782;2023-04-24T03:58:02;22.40;48.90
56300;DHT22;42209;6.376;-10.782;2023-04-24T04:00:30;22.30;49.10
56300;DHT22;42209;6.376;-10.782;2023-04-24T04:03:18;22.50;56.10
56300;DHT22;42209;6.376;-10.782;2023-04-24T04:05:47;22.70;58.40
56300;DHT22;42209;6.376;-10.782;2023-04-24T04:08:15;22.90;60.70
56300;DHT22;42209;6.376;-10.782;2023-04-24T04:10:43;23.00;62.20
56300;DHT22;42209;6.376;-10.782;2023-04-24T04:13:12;22.90;56.10
56300;DHT22;42209;6.376;-10.782;2023-04-24T04:15:40;22.80;53.00
56300;DHT22;42209;6.376;-10.782;2023-04-24T04:18:08;22.60;51.40
56300;DHT22;42209;6.376;-10.782;2023-04-24T04:20:37;22.50;50.30
56300;DHT22;42209;6.376;-10.782;2023-04-24T04:23:05;22.40;49.30
56300;DHT22;42209;6.376;-10.782;2023-04-24T04:25:47;22.30;48.20
56300;DHT22;42209;6.376;-10.782;2023-04-24T04:28:17;22.30;47.30
56300;DHT22;42209;6.376;-10.782;2023-04-24T04:30:45;22.20;46.70
56300;DHT22;42209;6.376;-10.782;2023-04-24T04:33:13;22.20;46.00
56300;DHT22;42209;6.376;-10.782;2023-04-24T04:35:42;22.20;45.50
56300;DHT22;42209;6.376;-10.782;2023-04-24T04:38:11;22.10;45.10
56300;DHT22;42209;6.376;-10.782;2023-04-24T04:40:59;22.10;44.40
56300;DHT22;42209;6.376;-10.782;2023-04-24T04:43:30;22.10;43.90
56300;DHT22;42209;6.376;-10.782;2023-04-24T04:45:58;22.10;43.60
56300;DHT22;42209;6.376;-10.782;2023-04-24T04:48:44;22.10;43.40
56300;DHT22;42209;6.376;-10.782;2023-04-24T04:51:12;22.00;42.80
56300;DHT22;42209;6.376;-10.782;2023-04-24T04:53:41;22.00;42.80
56300;DHT22;42209;6.376;-10.782;2023-04-24T04:56:09;22.10;48.90
56300;DHT22;42209;6.376;-10.782;2023-04-24T04:58:42;22.30;52.80
56300;DHT22;42209;6.376;-10.782;2023-04-24T05:01:14;22.50;55.20
56300;DHT22;42209;6.376;-10.782;2023-04-24T05:03:45;22.70;57.40
56300;DHT22;42209;6.376;-10.782;2023-04-24T05:06:16;22.80;59.40
56300;DHT22;42209;6.376;-10.782;2023-04-24T05:08:45;22.90;57.60
56300;DHT22;42209;6.376;-10.782;2023-04-24T05:11:30;22.70;52.50
56300;DHT22;42209;6.376;-10.782;2023-04-24T05:14:00;22.50;50.20
56300;DHT22;42209;6.376;-10.782;2023-04-24T05:16:35;22.40;51.80
56300;DHT22;42209;6.376;-10.782;2023-04-24T05:19:05;22.50;57.80
56300;DHT22;42209;6.376;-10.782;2023-04-24T05:21:38;22.70;60.80
56300;DHT22;42209;6.376;-10.782;2023-04-24T05:24:07;22.90;62.90
56300;DHT22;42209;6.376;-10.782;2023-04-24T05:26:45;23.00;63.20
56300;DHT22;42209;6.376;-10.782;2023-04-24T05:29:15;22.80;56.80
56300;DHT22;42209;6.376;-10.782;2023-04-24T05:31:44;22.60;53.20
56300;DHT22;42209;6.376;-10.782;2023-04-24T05:34:12;22.40;58.40
56300;DHT22;42209;6.376;-10.782;2023-04-24T05:36:43;22.60;61.20
56300;DHT22;42209;6.376;-10.782;2023-04-24T05:39:11;22.70;63.10
56300;DHT22;42209;6.376;-10.782;2023-04-24T05:41:40;22.80;64.20
56300;DHT22;42209;6.376;-10.782;2023-04-24T05:44:08;22.90;65.60
56300;DHT22;42209;6.376;-10.782;2023-04-24T05:46:36;23.10;65.00
56300;DHT22;42209;6.376;-10.782;2023-04-24T05:49:04;22.90;58.20
56300;DHT22;42209;6.376;-10.782;2023-04-24T05:51:34;22.60;53.20
56300;DHT22;42209;6.376;-10.782;2023-04-24T05:54:03;22.40;58.20
56300;DHT22;42209;6.376;-10.782;2023-04-24T05:56:31;22.50;60.90
56300;DHT22;42209;6.376;-10.782;2023-04-24T05:59:02;22.70;62.70
56300;DHT22;42209;6.376;-10.782;2023-04-24T06:01:30;22.80;63.30
56300;DHT22;42209;6.376;-10.782;2023-04-24T06:04:07;23.00;62.20
56300;DHT22;42209;6.376;-10.782;2023-04-24T06:06:36;22.90;56.50
56300;DHT22;42209;6.376;-10.782;2023-04-24T06:09:04;22.60;51.50
56300;DHT22;42209;6.376;-10.782;2023-04-24T06:11:33;22.40;55.60
56300;DHT22;42209;6.376;-10.782;2023-04-24T06:14:03;22.40;59.20
56300;DHT22;42209;6.376;-10.782;2023-04-24T06:16:37;22.60;60.80
56300;DHT22;42209;6.376;-10.782;2023-04-24T06:19:15;22.80;60.70
56300;DHT22;42209;6.376;-10.782;2023-04-24T06:21:43;23.00;60.60
56300;DHT22;42209;6.376;-10.782;2023-04-24T06:24:14;22.90;54.90
56300;DHT22;42209;6.376;-10.782;2023-04-24T06:26:43;22.60;51.70
56300;DHT22;42209;6.376;-10.782;2023-04-24T06:29:12;22.50;54.00
56300;DHT22;42209;6.376;-10.782;2023-04-24T06:31:40;22.50;58.30
56300;DHT22;42209;6.376;-10.782;2023-04-24T06:34:10;22.70;60.20
56300;DHT22;42209;6.376;-10.782;2023-04-24T06:36:38;22.90;60.30
56300;DHT22;42209;6.376;-10.782;2023-04-24T06:39:06;23.10;59.70
56300;DHT22;42209;6.376;-10.782;2023-04-24T06:41:35;22.90;54.10
56300;DHT22;42209;6.376;-10.782;2023-04-24T06:44:03;22.70;52.00
56300;DHT22;42209;6.376;-10.782;2023-04-24T06:46:31;22.50;55.70
56300;DHT22;42209;6.376;-10.782;2023-04-24T06:49:00;22.60;59.50
56300;DHT22;42209;6.376;-10.782;2023-04-24T06:51:29;22.80;61.50
56300;DHT22;42209;6.376;-10.782;2023-04-24T06:53:57;22.90;62.20
56300;DHT22;42209;6.376;-10.782;2023-04-24T06:56:28;23.10;58.50
56300;DHT22;42209;6.376;-10.782;2023-04-24T06:58:57;22.80;54.50
56300;DHT22;42209;6.376;-10.782;2023-04-24T07:01:25;22.60;52.60
56300;DHT22;42209;6.376;-10.782;2023-04-24T07:03:53;22.50;58.80
56300;DHT22;42209;6.376;-10.782;2023-04-24T07:06:21;22.70;62.20
56300;DHT22;42209;6.376;-10.782;2023-04-24T07:08:50;22.90;64.80
56300;DHT22;42209;6.376;-10.782;2023-04-24T07:11:18;23.10;65.30
56300;DHT22;42209;6.376;-10.782;2023-04-24T07:13:46;23.10;60.10
56300;DHT22;42209;6.376;-10.782;2023-04-24T07:16:15;22.90;56.20
56300;DHT22;42209;6.376;-10.782;2023-04-24T07:18:43;22.60;54.00
56300;DHT22;42209;6.376;-10.782;2023-04-24T07:21:11;22.50;60.10
56300;DHT22;42209;6.376;-10.782;2023-04-24T07:23:40;22.70;63.10
56300;DHT22;42209;6.376;-10.782;2023-04-24T07:26:08;22.90;65.60
56300;DHT22;42209;6.376;-10.782;2023-04-24T07:28:36;23.10;67.40
56300;DHT22;42209;6.376;-10.782;2023-04-24T07:31:05;23.00;59.60
56300;DHT22;42209;6.376;-10.782;2023-04-24T07:33:33;22.80;56.50
56300;DHT22;42209;6.376;-10.782;2023-04-24T07:36:01;22.60;54.80
56300;DHT22;42209;6.376;-10.782;2023-04-24T07:38:30;22.60;58.20
56300;DHT22;42209;6.376;-10.782;2023-04-24T07:40:58;22.70;62.00
56300;DHT22;42209;6.376;-10.782;2023-04-24T07:48:24;23.30;63.40
56300;DHT22;42209;6.376;-10.782;2023-04-24T07:50:53;23.60;66.50
56300;DHT22;42209;6.376;-10.782;2023-04-24T07:53:22;23.40;63.50
56300;DHT22;42209;6.376;-10.782;2023-04-24T07:55:50;23.00;58.30
56300;DHT22;42209;6.376;-10.782;2023-04-24T07:58:18;22.60;55.50
56300;DHT22;42209;6.376;-10.782;2023-04-24T08:00:46;22.40;60.30
56300;DHT22;42209;6.376;-10.782;2023-04-24T08:03:15;22.60;63.10
56300;DHT22;42209;6.376;-10.782;2023-04-24T08:05:43;22.80;64.40
56300;DHT22;42209;6.376;-10.782;2023-04-24T08:08:12;22.90;66.30
56300;DHT22;42209;6.376;-10.782;2023-04-24T08:10:40;23.00;66.50
56300;DHT22;42209;6.376;-10.782;2023-04-24T08:13:08;23.10;65.20
56300;DHT22;42209;6.376;-10.782;2023-04-24T08:15:36;22.80;57.70
56300;DHT22;42209;6.376;-10.782;2023-04-24T08:18:05;22.40;53.80
56300;DHT22;42209;6.376;-10.782;2023-04-24T08:20:33;22.40;59.70
56300;DHT22;42209;6.376;-10.782;2023-04-24T08:23:01;22.50;62.10
56300;DHT22;42209;6.376;-10.782;2023-04-24T08:25:29;22.70;63.80
56300;DHT22;42209;6.376;-10.782;2023-04-24T08:27:58;22.80;63.50
56300;DHT22;42209;6.376;-10.782;2023-04-24T08:30:26;23.00;61.80
56300;DHT22;42209;6.376;-10.782;2023-04-24T08:32:54;22.80;55.20
56300;DHT22;42209;6.376;-10.782;2023-04-24T08:35:22;22.40;51.80
56300;DHT22;42209;6.376;-10.782;2023-04-24T08:37:52;22.30;57.00
56300;DHT22;42209;6.376;-10.782;2023-04-24T08:40:26;22.40;60.20
56300;DHT22;42209;6.376;-10.782;2023-04-24T08:42:55;22.60;61.90
56300;DHT22;42209;6.376;-10.782;2023-04-24T08:45:24;22.80;60.70
56300;DHT22;42209;6.376;-10.782;2023-04-24T08:47:53;23.00;58.00
56300;DHT22;42209;6.376;-10.782;2023-04-24T08:50:22;22.80;52.60
56300;DHT22;42209;6.376;-10.782;2023-04-24T08:52:51;22.40;50.30
56300;DHT22;42209;6.376;-10.782;2023-04-24T08:55:20;22.20;55.40
56300;DHT22;42209;6.376;-10.782;2023-04-24T08:57:52;22.30;58.70
56300;DHT22;42209;6.376;-10.782;2023-04-24T09:00:21;22.50;59.60
56300;DHT22;42209;6.376;-10.782;2023-04-24T09:02:49;22.70;57.70
56300;DHT22;42209;6.376;-10.782;2023-04-24T09:05:18;22.90;54.30
56300;DHT22;42209;6.376;-10.782;2023-04-24T09:07:56;22.60;50.40
56300;DHT22;42209;6.376;-10.782;2023-04-24T09:10:25;22.20;48.60
56300;DHT22;42209;6.376;-10.782;2023-04-24T09:12:54;22.10;55.00
56300;DHT22;42209;6.376;-10.782;2023-04-24T09:15:23;22.30;58.20
56300;DHT22;42209;6.376;-10.782;2023-04-24T09:17:52;22.50;57.10
56300;DHT22;42209;6.376;-10.782;2023-04-24T09:20:20;22.80;54.60
56300;DHT22;42209;6.376;-10.782;2023-04-24T09:22:54;22.80;50.70
56300;DHT22;42209;6.376;-10.782;2023-04-24T09:25:32;22.40;48.40
56300;DHT22;42209;6.376;-10.782;2023-04-24T09:28:02;22.00;49.80
56300;DHT22;42209;6.376;-10.782;2023-04-24T09:30:31;22.10;55.40
56300;DHT22;42209;6.376;-10.782;2023-04-24T09:33:13;22.30;56.70
56300;DHT22;42209;6.376;-10.782;2023-04-24T09:35:42;22.60;54.70
56300;DHT22;42209;6.376;-10.782;2023-04-24T09:38:16;22.80;51.50
56300;DHT22;42209;6.376;-10.782;2023-04-24T09:40:44;22.50;49.00
56300;DHT22;42209;6.376;-10.782;2023-04-24T09:43:12;22.10;47.80
56300;DHT22;42209;6.376;-10.782;2023-04-24T09:45:41;22.00;54.20
56300;DHT22;42209;6.376;-10.782;2023-04-24T09:48:10;22.20;57.00
56300;DHT22;42209;6.376;-10.782;2023-04-24T09:50:38;22.50;55.50
56300;DHT22;42209;6.376;-10.782;2023-04-24T09:53:07;22.70;53.00
56300;DHT22;42209;6.376;-10.782;2023-04-24T09:55:40;22.70;49.20
56300;DHT22;42209;6.376;-10.782;2023-04-24T09:58:14;22.30;47.70
56300;DHT22;42209;6.376;-10.782;2023-04-24T10:00:42;22.10;52.30
56300;DHT22;42209;6.376;-10.782;2023-04-24T10:03:10;22.20;55.70
56300;DHT22;42209;6.376;-10.782;2023-04-24T10:05:39;22.50;54.70
56300;DHT22;42209;6.376;-10.782;2023-04-24T10:08:11;22.70;52.40
56300;DHT22;42209;6.376;-10.782;2023-04-24T10:10:44;22.70;48.70
56300;DHT22;42209;6.376;-10.782;2023-04-24T10:13:14;22.30;47.80
56300;DHT22;42209;6.376;-10.782;2023-04-24T10:15:43;22.00;50.40
56300;DHT22;42209;6.376;-10.782;2023-04-24T10:18:12;22.10;54.90
56300;DHT22;42209;6.376;-10.782;2023-04-24T10:20:40;22.40;55.10
56300;DHT22;42209;6.376;-10.782;2023-04-24T10:23:09;22.70;53.20
56300;DHT22;42209;6.376;-10.782;2023-04-24T10:25:37;22.70;49.60
56300;DHT22;42209;6.376;-10.782;2023-04-24T10:28:05;22.30;47.90
56300;DHT22;42209;6.376;-10.782;2023-04-24T10:30:37;22.00;48.80
56300;DHT22;42209;6.376;-10.782;2023-04-24T10:33:08;22.00;54.70
56300;DHT22;42209;6.376;-10.782;2023-04-24T10:35:47;22.20;55.70
56300;DHT22;42209;6.376;-10.782;2023-04-24T10:38:21;22.60;54.00
56300;DHT22;42209;6.376;-10.782;2023-04-24T10:40:50;22.80;50.70
56300;DHT22;42209;6.376;-10.782;2023-04-24T10:43:20;22.50;48.50
56300;DHT22;42209;6.376;-10.782;2023-04-24T10:46:05;22.20;47.30
56300;DHT22;42209;6.376;-10.782;2023-04-24T10:48:34;22.10;53.60
56300;DHT22;42209;6.376;-10.782;2023-04-24T10:51:02;22.40;57.10
56300;DHT22;42209;6.376;-10.782;2023-04-24T10:53:30;22.60;56.20
56300;DHT22;42209;6.376;-10.782;2023-04-24T10:56:03;22.80;53.10
56300;DHT22;42209;6.376;-10.782;2023-04-24T10:58:43;22.70;50.60
56300;DHT22;42209;6.376;-10.782;2023-04-24T11:01:28;22.30;49.30
56300;DHT22;42209;6.376;-10.782;2023-04-24T11:04:02;22.20;49.30
56300;DHT22;42209;6.376;-10.782;2023-04-24T11:09:10;22.40;58.10
56300;DHT22;42209;6.376;-10.782;2023-04-24T11:11:44;22.60;60.00
56300;DHT22;42209;6.376;-10.782;2023-04-24T11:14:17;22.90;62.10
56300;DHT22;42209;6.376;-10.782;2023-04-24T11:16:52;22.90;56.90
56300;DHT22;42209;6.376;-10.782;2023-04-24T11:19:25;22.70;53.80
56300;DHT22;42209;6.376;-10.782;2023-04-24T11:22:14;22.40;52.30
56300;DHT22;42209;6.376;-10.782;2023-04-24T11:27:22;22.40;59.20
56300;DHT22;42209;6.376;-10.782;2023-04-24T11:34:58;22.90;57.50
56300;DHT22;42209;6.376;-10.782;2023-04-24T11:37:36;22.60;54.70
56300;DHT22;42209;6.376;-10.782;2023-04-24T11:40:07;22.40;53.10
56300;DHT22;42209;6.376;-10.782;2023-04-24T11:42:41;22.40;52.30
56300;DHT22;42209;6.376;-10.782;2023-04-24T11:45:17;22.30;52.20
56300;DHT22;42209;6.376;-10.782;2023-04-24T11:47:45;22.50;59.10
56300;DHT22;42209;6.376;-10.782;2023-04-24T11:50:15;22.70;61.40
56300;DHT22;42209;6.376;-10.782;2023-04-24T11:52:46;22.90;62.80
56300;DHT22;42209;6.376;-10.782;2023-04-24T11:57:44;22.90;57.70
56300;DHT22;42209;6.376;-10.782;2023-04-24T12:00:20;22.70;54.90
56300;DHT22;42209;6.376;-10.782;2023-04-24T12:02:49;22.60;53.70
56300;DHT22;42209;6.376;-10.782;2023-04-24T12:05:25;22.50;52.50
56300;DHT22;42209;6.376;-10.782;2023-04-24T12:07:54;22.50;51.50
56300;DHT22;42209;6.376;-10.782;2023-04-24T12:10:25;22.50;50.40
56300;DHT22;42209;6.376;-10.782;2023-04-24T12:12:56;22.40;49.60
56300;DHT22;42209;6.376;-10.782;2023-04-24T12:15:25;22.40;49.10
56300;DHT22;42209;6.376;-10.782;2023-04-24T12:17:53;22.40;48.50
56300;DHT22;42209;6.376;-10.782;2023-04-24T12:20:27;22.40;47.80
56300;DHT22;42209;6.376;-10.782;2023-04-24T12:22:57;22.40;47.20
56300;DHT22;42209;6.376;-10.782;2023-04-24T12:25:31;22.40;47.00
56300;DHT22;42209;6.376;-10.782;2023-04-24T12:30:34;22.40;46.60
56300;DHT22;42209;6.376;-10.782;2023-04-24T12:33:03;22.40;46.10
56300;DHT22;42209;6.376;-10.782;2023-04-24T12:35:32;22.40;45.70
56300;DHT22;42209;6.376;-10.782;2023-04-24T12:38:13;22.40;45.60
56300;DHT22;42209;6.376;-10.782;2023-04-24T12:40:43;22.40;45.80
56300;DHT22;42209;6.376;-10.782;2023-04-24T12:43:19;22.30;45.30
56300;DHT22;42209;6.376;-10.782;2023-04-24T12:45:48;22.40;45.10
56300;DHT22;42209;6.376;-10.782;2023-04-24T12:48:16;22.30;44.80
56300;DHT22;42209;6.376;-10.782;2023-04-24T12:50:45;22.40;45.00
56300;DHT22;42209;6.376;-10.782;2023-04-24T12:53:14;22.30;44.70
56300;DHT22;42209;6.376;-10.782;2023-04-24T12:55:43;22.30;44.60
56300;DHT22;42209;6.376;-10.782;2023-04-24T12:58:11;22.30;44.60
56300;DHT22;42209;6.376;-10.782;2023-04-24T13:00:39;22.20;44.70
56300;DHT22;42209;6.376;-10.782;2023-04-24T13:03:08;22.30;44.50
56300;DHT22;42209;6.376;-10.782;2023-04-24T13:05:36;22.30;44.80
56300;DHT22;42209;6.376;-10.782;2023-04-24T13:08:05;22.30;44.60
56300;DHT22;42209;6.376;-10.782;2023-04-24T13:10:33;22.20;44.50
56300;DHT22;42209;6.376;-10.782;2023-04-24T13:13:01;22.30;44.50
56300;DHT22;42209;6.376;-10.782;2023-04-24T13:15:31;22.20;44.20
56300;DHT22;42209;6.376;-10.782;2023-04-24T13:18:00;22.30;44.40
56300;DHT22;42209;6.376;-10.782;2023-04-24T13:20:28;22.20;44.60
56300;DHT22;42209;6.376;-10.782;2023-04-24T13:22:56;22.20;44.40
56300;DHT22;42209;6.376;-10.782;2023-04-24T13:25:27;22.20;44.40
56300;DHT22;42209;6.376;-10.782;2023-04-24T13:27:56;22.20;44.40
56300;DHT22;42209;6.376;-10.782;2023-04-24T13:30:24;22.20;44.40
56300;DHT22;42209;6.376;-10.782;2023-04-24T13:32:53;22.20;44.40
56300;DHT22;42209;6.376;-10.782;2023-04-24T13:35:21;22.20;44.10
56300;DHT22;42209;6.376;-10.782;2023-04-24T13:37:49;22.20;44.00
56300;DHT22;42209;6.376;-10.782;2023-04-24T13:40:18;22.20;43.90
56300;DHT22;42209;6.376;-10.782;2023-04-24T13:42:47;22.20;43.60
56300;DHT22;42209;6.376;-10.782;2023-04-24T13:45:15;22.10;43.50
56300;DHT22;42209;6.376;-10.782;2023-04-24T13:47:52;22.20;44.10
56300;DHT22;42209;6.376;-10.782;2023-04-24T13:50:21;22.20;44.10
56300;DHT22;42209;6.376;-10.782;2023-04-24T13:52:49;22.20;44.00
56300;DHT22;42209;6.376;-10.782;2023-04-24T13:55:18;22.20;43.80
56300;DHT22;42209;6.376;-10.782;2023-04-24T13:57:46;22.20;43.60
56300;DHT22;42209;6.376;-10.782;2023-04-24T14:00:14;22.20;43.60
56300;DHT22;42209;6.376;-10.782;2023-04-24T14:02:43;22.10;43.40
56300;DHT22;42209;6.376;-10.782;2023-04-24T14:05:13;22.10;43.40
56300;DHT22;42209;6.376;-10.782;2023-04-24T14:07:41;22.20;42.90
56300;DHT22;42209;6.376;-10.782;2023-04-24T14:10:09;22.20;42.90
56300;DHT22;42209;6.376;-10.782;2023-04-24T14:12:38;22.10;43.00
56300;DHT22;42209;6.376;-10.782;2023-04-24T14:15:07;22.10;42.80
56300;DHT22;42209;6.376;-10.782;2023-04-24T14:17:35;22.10;42.60
56300;DHT22;42209;6.376;-10.782;2023-04-24T14:20:05;22.20;42.40
56300;DHT22;42209;6.376;-10.782;2023-04-24T14:22:33;22.10;42.70
56300;DHT22;42209;6.376;-10.782;2023-04-24T14:25:02;22.10;43.40
56300;DHT22;42209;6.376;-10.782;2023-04-24T14:27:30;22.20;43.00
56300;DHT22;42209;6.376;-10.782;2023-04-24T14:29:59;22.20;42.90
56300;DHT22;42209;6.376;-10.782;2023-04-24T14:32:28;22.10;43.00
56300;DHT22;42209;6.376;-10.782;2023-04-24T14:34:56;22.10;43.10
56300;DHT22;42209;6.376;-10.782;2023-04-24T14:37:24;22.20;42.60
56300;DHT22;42209;6.376;-10.782;2023-04-24T14:39:53;22.20;42.60
56300;DHT22;42209;6.376;-10.782;2023-04-24T14:42:38;22.20;42.80
56300;DHT22;42209;6.376;-10.782;2023-04-24T14:45:07;22.10;42.70
56300;DHT22;42209;6.376;-10.782;2023-04-24T14:47:36;22.20;42.40
56300;DHT22;42209;6.376;-10.782;2023-04-24T14:50:05;22.10;42.90
56300;DHT22;42209;6.376;-10.782;2023-04-24T14:52:34;22.10;42.30
56300;DHT22;42209;6.376;-10.782;2023-04-24T14:55:05;22.10;42.30
56300;DHT22;42209;6.376;-10.782;2023-04-24T14:57:34;22.20;42.50
56300;DHT22;42209;6.376;-10.782;2023-04-24T15:00:04;22.20;42.40
56300;DHT22;42209;6.376;-10.782;2023-04-24T15:02:33;22.10;42.80
56300;DHT22;42209;6.376;-10.782;2023-04-24T15:05:02;22.20;42.70
56300;DHT22;42209;6.376;-10.782;2023-04-24T15:07:30;22.20;42.70
56300;DHT22;42209;6.376;-10.782;2023-04-24T15:09:58;22.20;42.90
56300;DHT22;42209;6.376;-10.782;2023-04-24T15:12:27;22.20;42.70
56300;DHT22;42209;6.376;-10.782;2023-04-24T15:14:57;22.20;42.60
56300;DHT22;42209;6.376;-10.782;2023-04-24T15:17:26;22.20;42.70
56300;DHT22;42209;6.376;-10.782;2023-04-24T15:19:54;22.20;42.80
56300;DHT22;42209;6.376;-10.782;2023-04-24T15:22:22;22.20;42.80
56300;DHT22;42209;6.376;-10.782;2023-04-24T15:24:50;22.20;42.90
56300;DHT22;42209;6.376;-10.782;2023-04-24T15:27:19;22.20;42.80
56300;DHT22;42209;6.376;-10.782;2023-04-24T15:29:47;22.20;42.60
56300;DHT22;42209;6.376;-10.782;2023-04-24T15:32:15;22.10;42.50
56300;DHT22;42209;6.376;-10.782;2023-04-24T15:34:44;22.10;42.70
56300;DHT22;42209;6.376;-10.782;2023-04-24T15:37:15;22.10;43.40
56300;DHT22;42209;6.376;-10.782;2023-04-24T15:39:44;22.10;43.40
56300;DHT22;42209;6.376;-10.782;2023-04-24T15:42:13;22.10;43.40
56300;DHT22;42209;6.376;-10.782;2023-04-24T15:44:41;22.10;50.40
56300;DHT22;42209;6.376;-10.782;2023-04-24T15:47:12;22.40;54.20
56300;DHT22;42209;6.376;-10.782;2023-04-24T15:49:40;22.60;56.40
56300;DHT22;42209;6.376;-10.782;2023-04-24T15:52:09;22.80;58.70